createdAt,value
2019-05-11T00:02:14.034Z,4.60
2019-05-11T00:04:44.387Z,4.77
2019-05-11T00:07:14.118Z,7.47
2019-05-11T00:09:57.708Z,8.63
2019-05-11T00:12:16.425Z,11.97
2019-05-11T00:14:46.823Z,11.78
2019-05-11T00:17:16.552Z,11.33
2019-05-11T00:19:46.823Z,12.00
2019-05-11T00:22:17.156Z,10.37
2019-05-11T00:24:47.576Z,10.27
2019-05-11T00:27:17.300Z,8.03
2019-05-11T00:29:47.593Z,7.63
2019-05-11T00:32:17.954Z,7.03
2019-05-11T00:34:48.271Z,7.13
2019-05-11T00:37:18.625Z,6.30
2019-05-11T00:39:48.401Z,5.53
2019-05-11T00:42:18.631Z,4.73
2019-05-11T00:44:49.115Z,5.20
2019-05-11T00:47:20.335Z,4.37
2019-05-11T00:49:50.033Z,4.00
2019-05-11T00:52:20.288Z,4.50
2019-05-11T00:54:50.707Z,4.20
2019-05-11T00:57:21.055Z,4.37
2019-05-11T00:59:51.464Z,4.20
2019-05-11T01:02:21.893Z,5.53
2019-05-11T01:04:52.246Z,6.53
2019-05-11T01:07:22.024Z,5.83
2019-05-11T01:09:51.600Z,5.40
2019-05-11T01:12:21.912Z,5.90
2019-05-11T01:14:52.276Z,5.50
2019-05-11T01:17:22.010Z,6.80
2019-05-11T01:19:51.606Z,8.27
2019-05-11T01:22:21.936Z,7.87
2019-05-11T01:24:52.331Z,8.73
2019-05-11T01:27:22.033Z,8.57
2019-05-11T01:29:52.432Z,10.30
2019-05-11T01:32:22.131Z,10.53
2019-05-11T01:34:52.447Z,10.87
2019-05-11T01:37:22.779Z,9.73
2019-05-11T01:39:53.152Z,11.47
2019-05-11T01:42:23.543Z,12.53
2019-05-11T01:44:53.973Z,12.53
2019-05-11T01:47:24.809Z,11.77
2019-05-11T01:49:54.512Z,12.10
2019-05-11T01:52:24.127Z,12.77
2019-05-11T01:54:54.344Z,13.17
2019-05-11T01:57:24.072Z,14.45
2019-05-11T01:59:53.742Z,13.40
2019-05-11T02:02:24.043Z,13.83
2019-05-11T02:05:13.292Z,13.00
2019-05-11T02:07:43.672Z,12.90
2019-05-11T02:10:13.506Z,12.77
2019-05-11T02:12:43.781Z,12.33
2019-05-11T02:15:14.126Z,13.63
2019-05-11T02:17:44.482Z,14.10
2019-05-11T02:20:15.271Z,13.37
2019-05-11T02:22:45.643Z,15.43
2019-05-11T02:25:15.669Z,15.13
2019-05-11T02:27:45.190Z,15.23
2019-05-11T02:30:15.188Z,13.13
2019-05-11T02:32:45.480Z,12.03
2019-05-11T02:35:15.359Z,10.93
2019-05-11T02:37:45.683Z,10.80
2019-05-11T02:40:15.478Z,10.50
2019-05-11T02:42:45.697Z,12.03
2019-05-11T02:45:15.685Z,11.17
2019-05-11T02:47:45.926Z,11.03
2019-05-11T02:50:15.615Z,7.50
2019-05-11T02:52:46.790Z,7.63
2019-05-11T02:55:16.519Z,7.33
2019-05-11T02:57:46.788Z,7.20
2019-05-11T03:00:17.930Z,8.00
2019-05-11T03:02:48.195Z,7.30
2019-05-11T03:05:18.562Z,7.07
2019-05-11T03:07:48.941Z,6.80
2019-05-11T03:10:19.849Z,8.90
2019-05-11T03:12:50.345Z,8.10
2019-05-11T03:15:20.710Z,9.07
2019-05-11T03:17:51.067Z,8.80
2019-05-11T03:20:21.433Z,9.03
2019-05-11T03:22:51.173Z,9.47
2019-05-11T03:25:21.463Z,9.60
2019-05-11T03:27:51.830Z,9.87
2019-05-11T03:30:22.209Z,9.43
2019-05-11T03:32:52.610Z,10.33
2019-05-11T03:35:22.291Z,9.70
2019-05-11T03:37:51.963Z,10.57
2019-05-11T03:40:21.553Z,11.10
2019-05-11T03:42:51.828Z,10.40
2019-05-11T03:45:21.582Z,11.50
2019-05-11T03:47:51.886Z,10.47
2019-05-11T03:50:22.271Z,10.40
2019-05-11T03:52:52.624Z,10.40
2019-05-11T03:55:22.986Z,10.33
2019-05-11T03:57:53.352Z,10.93
2019-05-11T04:00:24.150Z,10.23
2019-05-11T04:02:54.528Z,10.37
2019-05-11T04:05:24.941Z,10.93
2019-05-11T04:07:55.298Z,10.17
2019-05-11T04:10:25.914Z,11.07
2019-05-11T04:12:56.399Z,11.43
2019-05-11T04:15:26.817Z,11.70
2019-05-11T04:17:57.337Z,11.83
2019-05-11T04:20:27.770Z,11.97
2019-05-11T04:22:57.471Z,11.83
2019-05-11T04:25:27.759Z,10.70
2019-05-11T04:27:58.126Z,12.23
2019-05-11T04:30:27.823Z,12.63
2019-05-11T04:32:58.100Z,13.63
2019-05-11T04:35:27.815Z,11.90
2019-05-11T04:37:58.072Z,12.87
2019-05-11T04:40:28.442Z,12.50
2019-05-11T04:42:58.828Z,13.27
2019-05-11T04:45:28.541Z,13.23
2019-05-11T04:47:58.838Z,12.67
2019-05-11T04:50:28.570Z,13.73
2019-05-11T04:52:58.176Z,12.53
2019-05-11T04:55:28.448Z,12.73
2019-05-11T04:57:58.134Z,11.60
2019-05-11T05:00:28.399Z,12.57
2019-05-11T05:02:58.133Z,13.53
2019-05-11T05:05:28.393Z,11.53
2019-05-11T05:08:09.342Z,12.70
2019-05-11T05:10:29.965Z,12.00
2019-05-11T05:13:10.275Z,12.83
2019-05-11T05:15:31.643Z,12.50
2019-05-11T05:18:01.332Z,12.63
2019-05-11T05:20:31.613Z,11.37
2019-05-11T05:23:02.051Z,12.33
2019-05-11T05:25:32.441Z,12.67
2019-05-11T05:28:02.807Z,12.30
2019-05-11T05:30:33.207Z,13.57
2019-05-11T05:33:03.588Z,13.40
2019-05-11T05:35:34.159Z,12.90
2019-05-11T05:38:04.683Z,12.87
2019-05-11T05:40:35.021Z,12.07
2019-05-11T05:43:05.419Z,12.57
2019-05-11T05:45:35.763Z,12.03
2019-05-11T05:48:05.522Z,11.73
2019-05-11T05:50:35.245Z,12.23
2019-05-11T05:53:05.545Z,14.03
2019-05-11T05:55:35.920Z,14.37
2019-05-11T05:58:06.305Z,13.50
2019-05-11T06:00:36.672Z,14.63
2019-05-11T06:03:07.081Z,15.43
2019-05-11T06:05:37.479Z,15.30
2019-05-11T06:08:07.849Z,16.03
2019-05-11T06:10:38.211Z,14.03
2019-05-11T06:13:08.547Z,13.20
2019-05-11T06:15:38.251Z,14.10
2019-05-11T06:18:07.856Z,14.17
2019-05-11T06:20:38.163Z,13.60
2019-05-11T06:23:08.544Z,14.33
2019-05-11T06:25:38.276Z,14.70
2019-05-11T06:28:08.583Z,14.47
2019-05-11T06:30:38.315Z,16.63
2019-05-11T06:33:07.930Z,15.47
2019-05-11T06:35:37.661Z,15.43
2019-05-11T06:38:07.958Z,17.00
2019-05-11T06:40:38.466Z,17.50
2019-05-11T06:43:08.881Z,17.13
2019-05-11T06:45:38.643Z,16.97
2019-05-11T06:48:09.015Z,16.37
2019-05-11T06:50:38.786Z,15.83
2019-05-11T06:53:09.028Z,14.77
2019-05-11T06:55:38.790Z,13.37
2019-05-11T06:58:08.524Z,14.10
2019-05-11T07:00:38.842Z,15.53
2019-05-11T07:03:08.564Z,15.43
2019-05-11T07:05:38.866Z,16.07
2019-05-11T07:08:08.798Z,14.73
2019-05-11T07:10:38.407Z,16.73
2019-05-11T07:13:08.737Z,15.27
2019-05-11T07:15:38.452Z,15.77
2019-05-11T07:18:08.764Z,15.73
2019-05-11T07:20:49.967Z,14.90
2019-05-11T07:23:09.895Z,16.27
2019-05-11T07:25:39.503Z,17.73
2019-05-11T07:28:09.201Z,17.33
2019-05-11T07:30:38.952Z,18.70
2019-05-11T07:33:09.301Z,18.47
2019-05-11T07:35:39.031Z,19.13
2019-05-11T07:38:09.321Z,19.50
2019-05-11T07:40:39.052Z,19.70
2019-05-11T07:43:09.939Z,18.80
2019-05-11T07:45:39.890Z,19.37
2019-05-11T07:48:09.492Z,19.87
2019-05-11T07:50:39.126Z,19.60
2019-05-11T07:53:08.737Z,23.03
2019-05-11T07:55:39.015Z,22.00
2019-05-11T07:58:09.132Z,21.63
2019-05-11T08:00:40.117Z,21.40
2019-05-11T08:03:09.914Z,22.73
2019-05-11T08:05:39.595Z,22.67
2019-05-11T08:08:09.238Z,20.60
2019-05-11T08:10:39.528Z,20.47
2019-05-11T08:13:09.381Z,18.73
2019-05-11T08:15:39.061Z,20.03
2019-05-11T08:18:09.398Z,19.13
2019-05-11T08:20:39.125Z,18.73
2019-05-11T08:23:09.552Z,18.50
2019-05-11T08:25:39.284Z,18.00
2019-05-11T08:28:11.874Z,17.83
2019-05-11T08:30:40.131Z,17.90
2019-05-11T08:33:10.406Z,19.03
2019-05-11T08:35:40.115Z,17.77
2019-05-11T08:38:10.397Z,16.77
2019-05-11T08:40:40.089Z,17.93
2019-05-11T08:43:09.675Z,18.07
2019-05-11T08:45:39.481Z,16.77
2019-05-11T08:48:09.267Z,14.53
2019-05-11T08:50:38.921Z,13.43
2019-05-11T08:53:08.784Z,10.30
2019-05-11T08:55:39.089Z,9.23
2019-05-11T08:58:08.864Z,9.37
2019-05-11T09:00:39.161Z,8.83
2019-05-11T09:03:08.888Z,6.47
2019-05-11T09:05:39.164Z,6.60
2019-05-11T09:08:09.602Z,5.97
2019-05-11T09:10:39.959Z,6.70
2019-05-11T09:13:09.680Z,5.97
2019-05-11T09:15:40.733Z,5.97
2019-05-11T09:18:10.635Z,7.00
2019-05-11T09:20:40.873Z,6.27
2019-05-11T09:23:10.569Z,6.80
2019-05-11T09:25:40.796Z,7.00
2019-05-11T09:28:10.593Z,6.77
2019-05-11T09:30:40.883Z,6.23
2019-05-11T09:33:10.679Z,6.77
2019-05-11T09:35:50.006Z,7.47
2019-05-11T09:38:11.718Z,6.80
2019-05-11T09:40:41.995Z,6.50
2019-05-11T09:43:12.400Z,5.73
2019-05-11T09:45:48.185Z,5.73
2019-05-11T09:48:13.316Z,5.70
2019-05-11T09:50:43.562Z,4.20
2019-05-11T09:53:13.239Z,4.90
2019-05-11T09:55:43.577Z,4.67
2019-05-11T09:58:13.910Z,4.30
2019-05-11T10:00:44.285Z,5.00
2019-05-11T10:03:13.972Z,4.87
2019-05-11T10:05:44.191Z,5.40
2019-05-11T10:08:14.549Z,6.03
2019-05-11T10:10:45.325Z,5.90
2019-05-11T10:13:15.734Z,5.93
2019-05-11T10:16:00.887Z,5.70
2019-05-11T10:18:18.706Z,5.83
2019-05-11T10:20:49.133Z,5.83
2019-05-11T10:23:20.249Z,5.77
2019-05-11T10:25:49.969Z,6.17
2019-05-11T10:28:20.236Z,6.33
2019-05-11T10:30:49.905Z,6.53
2019-05-11T10:33:20.139Z,6.67
2019-05-11T10:35:49.917Z,6.80
2019-05-11T10:38:20.222Z,6.47
2019-05-11T10:40:49.925Z,7.30
2019-05-11T10:43:20.212Z,6.90
2019-05-11T10:45:50.015Z,6.20
2019-05-11T10:48:20.359Z,5.80
2019-05-11T10:50:50.831Z,5.60
2019-05-11T10:53:21.226Z,6.87
2019-05-11T10:55:51.617Z,5.80
2019-05-11T10:58:21.345Z,6.70
2019-05-11T11:00:50.993Z,6.90
2019-05-11T11:03:20.721Z,5.73
2019-05-11T11:05:50.438Z,4.90
2019-05-11T11:08:20.831Z,5.53
2019-05-11T11:10:51.328Z,4.83
2019-05-11T11:13:21.790Z,3.90
2019-05-11T11:15:52.304Z,4.07
2019-05-11T11:18:22.081Z,3.63
2019-05-11T11:20:51.741Z,2.87
2019-05-11T11:23:21.450Z,2.00
2019-05-11T11:25:51.853Z,2.10
2019-05-11T11:28:21.594Z,2.33
2019-05-11T11:30:51.900Z,1.93
2019-05-11T11:33:21.587Z,1.60
2019-05-11T11:35:51.221Z,1.77
2019-05-11T11:38:20.937Z,1.70
2019-05-11T11:40:51.287Z,2.00
2019-05-11T11:43:21.026Z,2.00
2019-05-11T11:45:51.302Z,2.90
2019-05-11T11:48:21.006Z,4.23
2019-05-11T11:50:51.272Z,4.20
2019-05-11T11:53:21.026Z,3.70
2019-05-11T11:55:50.658Z,2.83
2019-05-11T11:58:23.760Z,2.40
2019-05-11T12:00:52.511Z,3.10
2019-05-11T12:03:22.632Z,3.45
2019-05-11T12:05:52.910Z,3.60
2019-05-11T12:08:23.133Z,3.27
2019-05-11T12:10:53.440Z,3.27
2019-05-11T12:13:26.401Z,2.10
2019-05-11T12:15:54.489Z,1.87
2019-05-11T12:18:24.220Z,1.93
2019-05-11T12:20:54.702Z,1.87
2019-05-11T12:23:28.515Z,1.70
2019-05-11T12:25:58.359Z,2.20
2019-05-11T12:28:28.059Z,1.77
2019-05-11T12:30:58.669Z,1.50
2019-05-11T12:33:29.466Z,1.60
2019-05-11T12:35:59.205Z,1.53
2019-05-11T12:38:29.983Z,1.60
2019-05-11T12:40:59.735Z,1.33
2019-05-11T12:43:30.374Z,1.20
2019-05-11T12:46:00.913Z,1.07
2019-05-11T12:48:31.519Z,1.37
2019-05-11T12:51:01.292Z,1.37
2019-05-11T12:53:31.815Z,1.30
2019-05-11T12:56:01.532Z,1.10
2019-05-11T12:58:32.004Z,0.80
2019-05-11T13:01:02.468Z,0.70
2019-05-11T13:03:32.180Z,1.13
2019-05-11T13:06:02.285Z,0.90
2019-05-11T13:08:32.658Z,1.10
2019-05-11T13:11:03.142Z,1.10
2019-05-11T13:13:33.707Z,1.13
2019-05-11T13:16:04.215Z,1.00
2019-05-11T13:18:34.135Z,1.00
2019-05-11T13:21:04.579Z,1.30
2019-05-11T13:23:34.673Z,1.63
2019-05-11T13:26:05.042Z,1.20
2019-05-11T13:28:34.769Z,1.40
2019-05-11T13:31:05.196Z,2.00
2019-05-11T13:33:34.913Z,2.00
2019-05-11T13:36:05.204Z,1.80
2019-05-11T13:38:34.989Z,1.70
2019-05-11T13:41:04.604Z,1.53
2019-05-11T13:43:34.282Z,2.00
2019-05-11T13:46:04.624Z,1.80
2019-05-11T13:48:34.363Z,1.90
2019-05-11T13:51:04.611Z,2.10
2019-05-11T13:53:34.313Z,2.23
2019-05-11T13:56:04.045Z,2.30
2019-05-11T13:58:34.479Z,2.67
2019-05-11T14:01:04.951Z,2.40
2019-05-11T14:03:34.744Z,2.20
2019-05-11T14:06:05.107Z,2.20
2019-05-11T14:08:34.919Z,2.63
2019-05-11T14:11:05.344Z,2.40
2019-05-11T14:13:35.863Z,2.40
2019-05-11T14:16:07.980Z,2.37
2019-05-11T14:18:38.809Z,2.80
2019-05-11T14:21:08.570Z,2.90
2019-05-11T14:23:38.977Z,2.50
2019-05-11T14:26:08.759Z,1.80
2019-05-11T14:28:39.068Z,1.97
2019-05-11T14:31:08.886Z,1.67
2019-05-11T14:33:38.669Z,1.83
2019-05-11T14:36:08.761Z,1.80
2019-05-11T14:38:39.035Z,1.90
2019-05-11T14:41:08.799Z,2.33
2019-05-11T14:43:39.110Z,1.80
2019-05-11T14:46:08.865Z,1.90
2019-05-11T14:48:39.331Z,1.63
2019-05-11T14:51:09.757Z,1.70
2019-05-11T14:53:40.118Z,1.77
2019-05-11T14:56:09.900Z,1.83
2019-05-11T14:58:40.309Z,1.40
2019-05-11T15:01:10.850Z,1.70
2019-05-11T15:03:41.441Z,1.40
2019-05-11T15:06:11.441Z,1.60
2019-05-11T15:08:41.256Z,1.80
2019-05-11T15:11:11.641Z,1.73
2019-05-11T15:13:41.581Z,2.00
2019-05-11T15:16:11.304Z,2.07
2019-05-11T15:18:42.274Z,1.57
2019-05-11T15:21:12.283Z,1.80
2019-05-11T15:23:42.004Z,1.67
2019-05-11T15:26:12.451Z,1.57
2019-05-11T15:28:42.183Z,1.63
2019-05-11T15:31:12.503Z,1.73
2019-05-11T15:33:42.937Z,1.70
2019-05-11T15:36:12.846Z,1.70
2019-05-11T15:38:42.641Z,1.60
2019-05-11T15:41:13.323Z,1.53
2019-05-11T15:43:43.697Z,1.60
2019-05-11T15:46:13.412Z,1.67
2019-05-11T15:48:56.744Z,1.50
2019-05-11T15:51:15.506Z,1.53
2019-05-11T15:53:47.643Z,1.77
2019-05-11T15:56:19.148Z,2.77
2019-05-11T15:58:48.992Z,2.33
2019-05-11T16:01:19.315Z,1.97
2019-05-11T16:03:50.184Z,1.90
2019-05-11T16:06:21.269Z,1.87
2019-05-11T16:08:50.985Z,1.70
2019-05-11T16:11:20.691Z,2.00
2019-05-11T16:13:50.398Z,1.90
2019-05-11T16:16:20.344Z,1.67
2019-05-11T16:18:50.970Z,2.50
2019-05-11T16:21:20.653Z,1.60
2019-05-11T16:23:50.323Z,1.80
2019-05-11T16:26:20.243Z,1.47
2019-05-11T16:28:49.922Z,1.60
2019-05-11T16:31:20.267Z,1.70
2019-05-11T16:33:49.963Z,1.60
2019-05-11T16:36:20.167Z,1.80
2019-05-11T16:38:49.860Z,1.70
2019-05-11T16:41:21.121Z,1.70
2019-05-11T16:43:51.007Z,1.97
2019-05-11T16:46:20.636Z,2.20
2019-05-11T16:48:50.326Z,2.37
2019-05-11T16:51:20.066Z,2.33
2019-05-11T16:53:49.728Z,2.13
2019-05-11T16:56:20.138Z,2.00
2019-05-11T16:58:49.806Z,2.00
2019-05-11T17:01:20.218Z,2.03
2019-05-11T17:03:49.908Z,1.87
2019-05-11T17:06:20.064Z,2.07
2019-05-11T17:08:49.742Z,1.90
2019-05-11T17:11:20.379Z,2.27
2019-05-11T17:13:50.196Z,1.97
2019-05-11T17:16:20.607Z,2.13
2019-05-11T17:18:50.329Z,1.83
2019-05-11T17:21:20.485Z,1.87
2019-05-11T17:23:50.082Z,1.70
2019-05-11T17:26:19.753Z,1.93
2019-05-11T17:28:49.389Z,1.90
2019-05-11T17:31:19.880Z,1.67
2019-05-11T17:33:49.725Z,1.63
2019-05-11T17:36:20.710Z,2.03
2019-05-11T17:38:50.335Z,1.37
2019-05-11T17:41:21.237Z,1.90
2019-05-11T17:43:50.966Z,1.70
2019-05-11T17:46:21.017Z,2.00
2019-05-11T17:48:50.640Z,2.03
2019-05-11T17:51:22.571Z,1.90
2019-05-11T17:53:51.554Z,2.43
2019-05-11T17:56:21.214Z,1.80
2019-05-11T17:58:51.759Z,2.07
2019-05-11T18:01:21.905Z,2.47
2019-05-11T18:03:51.585Z,1.80
2019-05-11T18:06:21.241Z,2.00
2019-05-11T18:08:51.213Z,1.83
2019-05-11T18:11:21.827Z,2.00
2019-05-11T18:13:51.541Z,2.30
2019-05-11T18:16:22.289Z,2.30
2019-05-11T18:18:52.840Z,1.50
2019-05-11T18:21:23.718Z,1.53
2019-05-11T18:23:54.089Z,1.60
2019-05-11T18:26:24.179Z,1.60
2019-05-11T18:28:53.825Z,1.83
2019-05-11T18:31:24.525Z,1.80
2019-05-11T18:33:55.000Z,1.80
2019-05-11T18:36:24.790Z,1.50
2019-05-11T18:38:54.582Z,2.00
2019-05-11T18:41:24.930Z,2.00
2019-05-11T18:43:55.751Z,1.83
2019-05-11T18:46:27.889Z,1.60
2019-05-11T18:48:57.311Z,2.57
2019-05-11T18:51:27.167Z,2.77
2019-05-11T18:53:58.570Z,3.57
2019-05-11T18:56:28.650Z,3.35
2019-05-11T18:58:58.442Z,3.03
2019-05-11T19:01:28.599Z,2.90
2019-05-11T19:04:00.119Z,2.77
2019-05-11T19:06:29.993Z,3.10
2019-05-11T19:08:59.658Z,2.70
2019-05-11T19:11:29.373Z,3.13
2019-05-11T19:13:59.117Z,3.67
2019-05-11T19:16:28.935Z,4.03
2019-05-11T19:18:59.229Z,3.67
2019-05-11T19:21:29.043Z,3.97
2019-05-11T19:23:59.403Z,3.60
2019-05-11T19:26:29.179Z,3.50
2019-05-11T19:29:00.714Z,3.57
2019-05-11T19:31:30.136Z,3.40
2019-05-11T19:34:00.477Z,2.60
2019-05-11T19:36:30.272Z,2.80
2019-05-11T19:38:59.997Z,3.10
2019-05-11T19:41:29.645Z,3.50
2019-05-11T19:43:59.340Z,2.97
2019-05-11T19:46:29.017Z,3.70
2019-05-11T19:48:58.598Z,4.63
2019-05-11T19:51:29.170Z,4.20
2019-05-11T19:53:59.063Z,4.20
2019-05-11T19:56:29.390Z,4.40
2019-05-11T19:58:59.206Z,5.20
2019-05-11T20:01:29.506Z,3.83
2019-05-11T20:04:01.549Z,4.37
2019-05-11T20:06:30.879Z,3.70
2019-05-11T20:09:00.679Z,4.27
2019-05-11T20:11:31.036Z,3.80
2019-05-11T20:14:00.747Z,3.63
2019-05-11T20:16:30.363Z,2.97
2019-05-11T20:19:00.001Z,3.23
2019-05-11T20:21:30.323Z,3.20
2019-05-11T20:24:00.063Z,3.00
2019-05-11T20:26:30.356Z,2.50
2019-05-11T20:29:00.170Z,2.87
2019-05-11T20:31:30.503Z,2.60
2019-05-11T20:34:00.206Z,2.90
2019-05-11T20:36:29.847Z,2.83
2019-05-11T20:38:59.483Z,2.80
2019-05-11T20:41:29.736Z,3.30
2019-05-11T20:43:59.436Z,3.47
2019-05-11T20:46:29.697Z,3.50
2019-05-11T20:48:59.421Z,3.40
2019-05-11T20:51:36.528Z,3.80
2019-05-11T20:54:01.063Z,4.50
2019-05-11T20:56:31.606Z,4.43
2019-05-11T20:59:01.482Z,4.60
2019-05-11T21:01:31.744Z,4.80
2019-05-11T21:04:02.407Z,4.43
2019-05-11T21:06:32.110Z,4.40
2019-05-11T21:09:02.855Z,4.73
2019-05-11T21:11:33.245Z,4.07
2019-05-11T21:14:04.000Z,4.23
2019-05-11T21:16:34.554Z,4.60
2019-05-11T21:19:04.300Z,4.87
2019-05-11T21:21:46.266Z,4.83
2019-05-11T21:24:08.364Z,4.17
2019-05-11T21:26:38.590Z,4.20
2019-05-11T21:29:08.692Z,4.87
2019-05-11T21:31:40.661Z,4.90
2019-05-11T21:34:09.701Z,4.20
2019-05-11T21:36:39.394Z,4.97
2019-05-11T21:39:09.782Z,4.53
2019-05-11T21:41:39.639Z,4.40
2019-05-11T21:44:10.022Z,4.53
2019-05-11T21:46:39.797Z,4.10
2019-05-11T21:49:09.508Z,4.37
2019-05-11T21:51:39.807Z,4.00
2019-05-11T21:54:09.730Z,3.43
2019-05-11T21:56:40.900Z,4.20
2019-05-11T21:59:11.411Z,3.53
2019-05-11T22:01:41.330Z,4.50
2019-05-11T22:04:11.636Z,4.90
2019-05-11T22:06:41.514Z,3.93
2019-05-11T22:09:11.098Z,5.20
2019-05-11T22:11:40.733Z,4.20
2019-05-11T22:14:10.591Z,5.00
2019-05-11T22:16:40.184Z,4.47
2019-05-11T22:19:10.951Z,5.37
2019-05-11T22:21:41.265Z,5.50
2019-05-11T22:24:11.681Z,5.37
2019-05-11T22:26:41.426Z,6.07
2019-05-11T22:29:11.103Z,4.70
2019-05-11T22:31:42.096Z,5.37
2019-05-11T22:34:12.985Z,4.60
2019-05-11T22:36:43.418Z,4.73
2019-05-11T22:39:17.454Z,5.33
2019-05-11T22:41:48.187Z,6.70
2019-05-11T22:44:18.641Z,7.30
2019-05-11T22:46:48.448Z,7.30
2019-05-11T22:49:18.060Z,6.27
2019-05-11T22:51:47.703Z,6.50
2019-05-11T22:54:18.662Z,5.57
2019-05-11T22:56:49.125Z,6.13
2019-05-11T22:59:18.858Z,6.17
2019-05-11T23:01:49.169Z,6.27
2019-05-11T23:04:19.937Z,6.40
2019-05-11T23:06:50.243Z,5.97
2019-05-11T23:09:21.567Z,4.83
2019-05-11T23:11:51.925Z,5.67
2019-05-11T23:14:21.591Z,5.73
2019-05-11T23:16:51.847Z,5.90
2019-05-11T23:19:22.221Z,5.63
2019-05-11T23:21:51.926Z,5.83
2019-05-11T23:24:22.189Z,5.63
2019-05-11T23:26:52.530Z,5.90
2019-05-11T23:29:22.923Z,5.23
2019-05-11T23:31:52.682Z,5.63
2019-05-11T23:34:22.927Z,4.70
2019-05-11T23:36:52.714Z,4.70
2019-05-11T23:39:23.002Z,5.50
2019-05-11T23:41:52.740Z,5.07
2019-05-11T23:44:23.088Z,4.37
2019-05-11T23:46:52.826Z,4.57
2019-05-11T23:49:23.111Z,4.60
2019-05-11T23:51:52.793Z,4.40
2019-05-11T23:54:23.107Z,4.77
2019-05-11T23:56:53.433Z,5.10
2019-05-11T23:59:23.145Z,4.87
